createdAt,value
2019-04-10T00:00:32.925Z,6.5694
2019-04-10T00:01:19.571Z,6.2596
2019-04-10T00:02:07.018Z,6.5694
2019-04-10T00:02:53.638Z,6.5000
2019-04-10T00:03:42.069Z,6.1475
2019-04-10T00:04:29.670Z,6.1742
2019-04-10T00:05:16.040Z,6.3024
2019-04-10T00:06:02.570Z,6.1181
2019-04-10T00:06:50.002Z,5.9926
2019-04-10T00:07:37.294Z,6.0060
2019-04-10T00:08:24.081Z,6.0914
2019-04-10T00:09:10.602Z,6.0914
2019-04-10T00:09:57.307Z,6.1048
2019-04-10T00:10:43.853Z,6.0620
2019-04-10T00:11:30.253Z,6.2596
2019-04-10T00:12:16.567Z,6.3024
2019-04-10T00:13:02.927Z,5.7763
2019-04-10T00:13:49.247Z,6.1048
2019-04-10T00:14:36.601Z,5.8351
2019-04-10T00:15:22.993Z,6.1181
2019-04-10T00:16:08.372Z,6.0620
2019-04-10T00:16:54.332Z,6.0914
2019-04-10T00:17:40.941Z,6.0487
2019-04-10T00:18:27.337Z,5.9766
2019-04-10T00:19:14.794Z,5.9072
2019-04-10T00:20:02.320Z,6.0327
2019-04-10T00:20:49.080Z,6.1315
2019-04-10T00:21:35.579Z,6.1902
2019-04-10T00:22:22.256Z,6.3851
2019-04-10T00:23:08.940Z,5.8511
2019-04-10T00:23:55.541Z,5.5386
2019-04-10T00:24:42.134Z,6.1315
2019-04-10T00:25:28.636Z,6.1742
2019-04-10T00:26:15.239Z,6.1181
2019-04-10T00:27:02.042Z,5.9926
2019-04-10T00:27:48.449Z,5.7923
2019-04-10T00:28:35.829Z,5.9072
2019-04-10T00:29:22.422Z,6.0060
2019-04-10T00:30:09.066Z,6.3291
2019-04-10T00:30:55.583Z,6.2169
2019-04-10T00:31:42.283Z,6.0914
2019-04-10T00:32:28.605Z,5.8511
2019-04-10T00:33:14.953Z,5.7496
2019-04-10T00:34:01.242Z,5.7923
2019-04-10T00:34:47.731Z,5.5947
2019-04-10T00:35:35.085Z,5.5947
2019-04-10T00:36:21.542Z,5.5226
2019-04-10T00:37:21.273Z,5.5947
2019-04-10T00:37:51.340Z,5.2556
2019-04-10T00:38:37.971Z,5.2262
2019-04-10T00:39:24.564Z,5.2689
2019-04-10T00:40:10.989Z,5.5653
2019-04-10T00:40:57.578Z,5.3677
2019-04-10T00:41:44.276Z,5.4398
2019-04-10T00:42:30.675Z,5.7496
2019-04-10T00:43:17.085Z,5.7763
2019-04-10T00:44:03.653Z,5.7362
2019-04-10T00:44:50.148Z,5.9205
2019-04-10T00:45:37.362Z,5.8644
2019-04-10T00:46:24.274Z,6.0060
2019-04-10T00:47:10.886Z,5.7496
2019-04-10T00:47:57.214Z,6.0327
2019-04-10T00:48:42.582Z,5.9632
2019-04-10T00:49:29.430Z,6.3024
2019-04-10T00:50:15.859Z,6.0487
2019-04-10T00:51:03.308Z,5.7496
2019-04-10T00:51:50.022Z,5.6374
2019-04-10T00:52:36.597Z,5.9766
2019-04-10T00:53:23.202Z,5.9926
2019-04-10T00:54:09.858Z,6.1902
2019-04-10T00:54:57.407Z,6.0327
2019-04-10T00:55:44.045Z,5.9339
2019-04-10T00:56:30.594Z,5.8057
2019-04-10T00:57:17.041Z,5.8217
2019-04-10T00:58:03.668Z,5.9632
2019-04-10T00:58:51.187Z,6.2596
2019-04-10T00:59:37.646Z,6.1048
2019-04-10T01:00:23.942Z,6.2730
2019-04-10T01:01:10.298Z,5.8938
2019-04-10T01:01:56.629Z,6.0620
2019-04-10T01:02:42.999Z,6.2596
2019-04-10T01:03:29.738Z,6.0754
2019-04-10T01:04:16.129Z,6.1181
2019-04-10T01:05:02.849Z,6.3291
2019-04-10T01:05:49.458Z,6.0754
2019-04-10T01:06:35.824Z,6.1475
2019-04-10T01:07:32.673Z,6.0327
2019-04-10T01:08:13.477Z,5.9072
2019-04-10T01:08:59.772Z,5.3838
2019-04-10T01:09:46.096Z,5.6935
2019-04-10T01:10:32.477Z,5.6081
2019-04-10T01:11:19.023Z,5.4238
2019-04-10T01:12:05.771Z,5.4532
2019-04-10T01:12:52.405Z,5.7763
2019-04-10T01:13:38.682Z,5.9766
2019-04-10T01:14:25.503Z,5.9072
2019-04-10T01:15:12.085Z,6.0487
2019-04-10T01:15:58.647Z,5.8217
2019-04-10T01:16:44.990Z,5.6374
2019-04-10T01:17:31.354Z,5.4532
2019-04-10T01:18:17.652Z,5.8511
2019-04-10T01:19:03.735Z,5.6935
2019-04-10T01:19:50.348Z,5.8057
2019-04-10T01:20:37.821Z,5.2129
2019-04-10T01:21:24.238Z,5.5226
2019-04-10T01:22:10.744Z,5.4959
2019-04-10T01:22:57.336Z,5.5787
2019-04-10T01:23:44.790Z,5.1701
2019-04-10T01:24:31.310Z,5.4959
2019-04-10T01:25:18.610Z,5.1862
2019-04-10T01:26:05.198Z,5.4532
2019-04-10T01:26:51.790Z,5.5787
2019-04-10T01:27:38.268Z,5.5787
2019-04-10T01:28:24.831Z,5.6641
2019-04-10T01:29:11.351Z,5.2556
2019-04-10T01:29:58.012Z,5.1141
2019-04-10T01:30:43.483Z,5.3250
2019-04-10T01:31:30.921Z,5.0126
2019-04-10T01:32:17.444Z,5.3117
2019-04-10T01:33:04.055Z,5.2556
2019-04-10T01:33:50.379Z,5.3117
2019-04-10T01:34:37.855Z,5.4665
2019-04-10T01:35:24.574Z,5.5787
2019-04-10T01:36:11.061Z,5.6935
2019-04-10T01:36:58.328Z,5.7202
2019-04-10T01:37:49.513Z,5.4238
2019-04-10T01:38:36.263Z,5.4238
2019-04-10T01:39:15.896Z,5.4959
2019-04-10T01:40:02.545Z,5.3250
2019-04-10T01:40:48.932Z,5.3117
2019-04-10T01:41:36.214Z,5.3971
2019-04-10T01:42:22.856Z,5.3250
2019-04-10T01:43:13.303Z,5.4398
2019-04-10T01:44:02.082Z,5.2850
2019-04-10T01:44:49.347Z,5.2556
2019-04-10T01:45:35.665Z,5.3971
2019-04-10T01:46:22.334Z,5.4532
2019-04-10T01:47:08.804Z,5.4238
2019-04-10T01:47:55.372Z,5.3838
2019-04-10T01:48:41.909Z,5.1568
2019-04-10T01:49:29.217Z,4.8150
2019-04-10T01:50:15.825Z,5.2129
2019-04-10T01:51:01.223Z,5.2983
2019-04-10T01:51:47.695Z,5.2422
2019-04-10T01:52:34.010Z,5.4238
2019-04-10T01:53:20.358Z,5.3838
2019-04-10T01:54:06.916Z,5.3838
2019-04-10T01:54:53.451Z,5.2850
2019-04-10T01:55:40.852Z,5.2556
2019-04-10T01:56:31.663Z,5.1701
2019-04-10T01:57:18.612Z,5.1862
2019-04-10T01:58:05.159Z,5.2850
2019-04-10T01:58:51.732Z,5.2422
2019-04-10T01:59:38.248Z,5.3117
2019-04-10T02:00:23.762Z,5.3117
2019-04-10T02:01:10.274Z,5.1434
2019-04-10T02:01:56.846Z,4.7028
2019-04-10T02:02:43.353Z,4.9432
2019-04-10T02:03:29.929Z,5.2556
2019-04-10T02:04:16.386Z,5.0446
2019-04-10T02:05:03.936Z,5.1141
2019-04-10T02:05:50.363Z,5.3971
2019-04-10T02:06:37.719Z,5.1568
2019-04-10T02:07:24.466Z,4.7883
2019-04-10T02:08:13.497Z,4.7028
2019-04-10T02:09:02.575Z,4.6040
2019-04-10T02:09:49.765Z,4.6735
2019-04-10T02:10:36.404Z,4.6895
2019-04-10T02:11:23.870Z,4.3076
2019-04-10T02:12:10.388Z,4.4625
2019-04-10T02:12:56.716Z,4.3503
2019-04-10T02:13:43.485Z,5.0126
2019-04-10T02:14:30.061Z,4.8577
2019-04-10T02:15:17.721Z,5.2850
2019-04-10T02:16:04.117Z,5.1434
2019-04-10T02:16:51.445Z,4.7028
2019-04-10T02:17:38.901Z,4.9992
2019-04-10T02:18:25.552Z,4.5480
2019-04-10T02:19:14.180Z,5.1995
2019-04-10T02:20:00.867Z,4.9432
2019-04-10T02:20:47.401Z,5.2262
2019-04-10T02:21:34.045Z,4.7322
2019-04-10T02:22:20.454Z,4.1367
2019-04-10T02:23:07.396Z,4.0646
2019-04-10T02:23:54.496Z,4.2195
2019-04-10T02:24:41.600Z,4.1928
2019-04-10T02:25:28.442Z,4.1928
2019-04-10T02:26:14.850Z,4.5346
2019-04-10T02:27:02.297Z,4.6468
2019-04-10T02:27:48.798Z,4.7883
2019-04-10T02:28:36.151Z,4.7883
2019-04-10T02:29:23.804Z,4.6040
2019-04-10T02:30:12.033Z,4.6468
2019-04-10T02:31:00.686Z,4.5907
2019-04-10T02:31:48.519Z,4.6735
2019-04-10T02:32:37.176Z,4.5907
2019-04-10T02:33:25.528Z,4.6334
2019-04-10T02:34:14.829Z,4.7883
2019-04-10T02:35:01.418Z,4.8310
2019-04-10T02:35:47.961Z,5.1434
2019-04-10T02:36:36.202Z,5.3250
2019-04-10T02:37:22.990Z,5.2556
2019-04-10T02:38:26.146Z,5.3117
2019-04-10T02:39:12.246Z,5.4398
2019-04-10T02:39:57.927Z,5.5386
2019-04-10T02:40:45.557Z,5.2689
2019-04-10T02:41:32.432Z,5.1274
2019-04-10T02:42:20.844Z,5.3544
2019-04-10T02:43:08.362Z,5.4532
2019-04-10T02:43:57.850Z,5.4665
2019-04-10T02:44:45.724Z,5.6508
2019-04-10T02:45:32.635Z,5.7362
2019-04-10T02:46:19.681Z,5.5386
2019-04-10T02:47:06.488Z,5.5653
2019-04-10T02:47:54.908Z,5.6775
2019-04-10T02:48:41.581Z,5.7496
2019-04-10T02:49:28.104Z,5.6374
2019-04-10T02:50:14.439Z,5.7496
2019-04-10T02:51:01.895Z,5.7069
2019-04-10T02:51:41.755Z,5.7362
2019-04-10T02:52:30.856Z,5.8057
2019-04-10T02:53:17.222Z,5.7763
2019-04-10T02:54:04.966Z,5.7202
2019-04-10T02:54:52.019Z,5.8351
2019-04-10T02:55:40.832Z,5.8938
2019-04-10T02:56:28.492Z,5.9632
2019-04-10T02:57:14.968Z,5.8938
2019-04-10T02:58:02.419Z,5.8057
2019-04-10T02:58:49.307Z,5.8351
2019-04-10T02:59:37.476Z,5.8351
2019-04-10T03:00:24.449Z,5.8644
2019-04-10T03:01:13.473Z,5.9205
2019-04-10T03:02:00.405Z,5.9499
2019-04-10T03:02:49.928Z,6.0060
2019-04-10T03:03:38.267Z,5.9926
2019-04-10T03:04:24.786Z,5.9072
2019-04-10T03:05:11.181Z,5.8351
2019-04-10T03:05:58.698Z,5.8057
2019-04-10T03:06:46.990Z,5.8057
2019-04-10T03:07:33.866Z,5.7923
2019-04-10T03:08:39.561Z,5.8057
2019-04-10T03:09:30.533Z,5.7923
2019-04-10T03:10:15.214Z,5.8057
2019-04-10T03:11:00.477Z,5.8217
2019-04-10T03:11:47.497Z,5.9205
2019-04-10T03:12:34.130Z,5.9339
2019-04-10T03:13:21.896Z,6.0327
2019-04-10T03:14:08.293Z,6.0487
2019-04-10T03:14:55.164Z,6.0754
2019-04-10T03:15:43.262Z,6.1181
2019-04-10T03:16:31.211Z,6.0914
2019-04-10T03:17:17.769Z,6.1475
2019-04-10T03:18:04.374Z,6.0620
2019-04-10T03:18:50.677Z,6.0327
2019-04-10T03:19:37.935Z,5.8644
2019-04-10T03:20:24.625Z,5.9205
2019-04-10T03:21:12.170Z,5.7763
2019-04-10T03:21:59.672Z,5.7923
2019-04-10T03:22:47.121Z,5.8057
2019-04-10T03:23:33.697Z,5.7923
2019-04-10T03:24:21.202Z,5.7630
2019-04-10T03:25:08.758Z,5.8351
2019-04-10T03:25:55.343Z,5.7923
2019-04-10T03:26:41.644Z,5.8217
2019-04-10T03:27:28.138Z,5.9072
2019-04-10T03:28:14.614Z,5.8778
2019-04-10T03:29:01.005Z,5.9499
2019-04-10T03:29:48.411Z,5.9072
2019-04-10T03:30:36.953Z,5.8938
2019-04-10T03:31:27.190Z,5.8511
2019-04-10T03:32:14.665Z,5.8511
2019-04-10T03:33:04.674Z,5.8217
2019-04-10T03:33:55.467Z,5.8938
2019-04-10T03:34:43.876Z,5.9205
2019-04-10T03:35:32.583Z,5.9632
2019-04-10T03:36:19.121Z,5.9632
2019-04-10T03:37:05.525Z,6.1048
2019-04-10T03:37:52.831Z,6.0327
2019-04-10T03:38:54.549Z,5.9499
2019-04-10T03:39:31.684Z,5.9766
2019-04-10T03:40:19.628Z,5.9632
2019-04-10T03:41:06.107Z,5.9632
2019-04-10T03:41:52.638Z,5.9766
2019-04-10T03:42:39.211Z,5.9339
2019-04-10T03:43:25.839Z,5.9926
2019-04-10T03:44:12.457Z,6.0327
2019-04-10T03:44:59.547Z,6.0620
2019-04-10T03:45:38.958Z,6.0327
2019-04-10T03:46:25.656Z,6.0487
2019-04-10T03:47:12.061Z,6.0327
2019-04-10T03:47:59.887Z,6.0620
2019-04-10T03:48:47.280Z,6.0754
2019-04-10T03:49:33.973Z,6.0487
2019-04-10T03:50:20.433Z,6.0193
2019-04-10T03:51:06.714Z,6.0327
2019-04-10T03:51:53.090Z,6.0327
2019-04-10T03:52:39.461Z,6.0327
2019-04-10T03:53:26.421Z,6.0193
2019-04-10T03:54:13.167Z,6.0327
2019-04-10T03:55:02.790Z,6.0060
2019-04-10T03:55:52.118Z,6.0620
2019-04-10T03:56:38.484Z,6.0754
2019-04-10T03:57:24.788Z,6.0487
2019-04-10T03:58:13.460Z,6.0754
2019-04-10T03:59:02.037Z,6.0914
2019-04-10T03:59:49.640Z,6.1048
2019-04-10T04:00:36.305Z,6.1475
2019-04-10T04:01:22.965Z,6.1475
2019-04-10T04:02:09.439Z,6.0914
2019-04-10T04:02:56.045Z,6.1181
2019-04-10T04:03:42.711Z,6.1181
2019-04-10T04:04:29.149Z,6.0754
2019-04-10T04:05:15.578Z,6.0754
2019-04-10T04:06:01.906Z,6.0754
2019-04-10T04:06:48.258Z,6.0914
2019-04-10T04:07:34.799Z,6.0754
2019-04-10T04:08:21.563Z,6.0620
2019-04-10T04:09:11.573Z,6.0193
2019-04-10T04:10:00.190Z,5.9926
2019-04-10T04:10:46.544Z,6.0193
2019-04-10T04:11:33.543Z,6.0487
2019-04-10T04:12:20.215Z,5.9926
2019-04-10T04:13:07.532Z,5.9926
2019-04-10T04:13:53.912Z,5.9499
2019-04-10T04:14:40.850Z,6.0060
2019-04-10T04:15:28.130Z,5.9926
2019-04-10T04:16:15.010Z,6.0327
2019-04-10T04:17:01.863Z,6.0620
2019-04-10T04:17:48.588Z,6.0487
2019-04-10T04:18:35.345Z,6.0193
2019-04-10T04:19:22.027Z,5.9926
2019-04-10T04:20:08.701Z,6.0193
2019-04-10T04:20:55.094Z,6.0193
2019-04-10T04:21:41.819Z,6.0060
2019-04-10T04:22:28.524Z,6.0487
2019-04-10T04:23:14.872Z,6.0487
2019-04-10T04:24:01.507Z,6.0620
2019-04-10T04:24:48.223Z,6.0327
2019-04-10T04:25:34.633Z,6.0327
2019-04-10T04:26:21.262Z,6.0487
2019-04-10T04:27:06.683Z,6.0487
2019-04-10T04:27:53.858Z,6.0487
2019-04-10T04:28:40.261Z,6.0754
2019-04-10T04:29:25.572Z,6.0754
2019-04-10T04:30:12.629Z,6.0620
2019-04-10T04:30:58.962Z,6.0754
2019-04-10T04:31:45.312Z,6.0754
2019-04-10T04:32:31.482Z,6.0620
2019-04-10T04:33:18.950Z,6.0193
2019-04-10T04:34:06.166Z,6.0327
2019-04-10T04:34:52.585Z,6.0060
2019-04-10T04:35:38.860Z,5.9766
2019-04-10T04:36:25.201Z,5.9766
2019-04-10T04:37:12.353Z,6.0193
2019-04-10T04:37:58.766Z,6.0193
2019-04-10T04:38:45.291Z,5.9766
2019-04-10T04:39:32.886Z,5.9926
2019-04-10T04:40:19.693Z,5.9766
2019-04-10T04:41:06.860Z,5.9926
2019-04-10T04:41:53.247Z,5.9926
2019-04-10T04:42:40.638Z,5.9926
2019-04-10T04:43:27.048Z,5.9766
2019-04-10T04:44:14.500Z,5.9766
2019-04-10T04:45:00.926Z,6.0060
2019-04-10T04:45:48.533Z,6.0060
2019-04-10T04:46:34.812Z,6.0193
2019-04-10T04:47:22.278Z,6.0327
2019-04-10T04:48:09.739Z,6.0487
2019-04-10T04:48:56.208Z,6.0487
2019-04-10T04:49:42.507Z,6.0620
2019-04-10T04:50:29.310Z,6.0754
2019-04-10T04:51:15.436Z,6.0754
2019-04-10T04:52:02.584Z,6.1048
2019-04-10T04:52:49.337Z,6.1315
2019-04-10T04:53:36.413Z,6.1475
2019-04-10T04:54:23.303Z,6.1608
2019-04-10T04:55:10.052Z,6.2036
2019-04-10T04:55:57.387Z,6.2036
2019-04-10T04:56:44.253Z,6.2036
2019-04-10T04:57:30.976Z,6.1902
2019-04-10T04:58:20.272Z,6.1742
2019-04-10T04:59:06.631Z,6.2036
2019-04-10T04:59:52.997Z,6.1742
2019-04-10T05:00:39.560Z,6.1742
2019-04-10T05:01:26.017Z,6.1475
2019-04-10T05:02:12.322Z,6.1315
2019-04-10T05:02:59.747Z,6.0914
2019-04-10T05:03:46.405Z,6.1181
2019-04-10T05:04:33.731Z,6.1475
2019-04-10T05:05:20.106Z,6.1315
2019-04-10T05:06:05.941Z,6.1181
2019-04-10T05:06:52.267Z,6.1181
2019-04-10T05:07:39.635Z,6.1315
2019-04-10T05:08:26.112Z,6.0914
2019-04-10T05:09:20.961Z,6.0754
2019-04-10T05:10:04.711Z,6.0620
2019-04-10T05:10:51.057Z,6.0327
2019-04-10T05:11:38.430Z,6.0193
2019-04-10T05:12:25.551Z,6.0327
2019-04-10T05:13:11.957Z,6.0487
2019-04-10T05:13:59.277Z,6.0754
2019-04-10T05:14:46.178Z,6.0487
2019-04-10T05:15:33.268Z,6.0620
2019-04-10T05:16:20.651Z,6.0914
2019-04-10T05:17:07.968Z,6.0914
2019-04-10T05:17:55.552Z,6.0914
2019-04-10T05:18:41.911Z,6.1048
2019-04-10T05:19:30.439Z,6.0914
2019-04-10T05:20:19.016Z,6.1181
2019-04-10T05:21:05.412Z,6.1048
2019-04-10T05:21:51.968Z,6.1048
2019-04-10T05:22:39.392Z,6.0754
2019-04-10T05:23:26.672Z,6.0754
2019-04-10T05:24:12.058Z,6.1048
2019-04-10T05:24:58.789Z,6.1181
2019-04-10T05:25:45.396Z,6.0914
2019-04-10T05:26:32.353Z,6.1181
2019-04-10T05:27:18.734Z,6.1048
2019-04-10T05:28:05.812Z,6.1315
2019-04-10T05:28:52.849Z,6.1475
2019-04-10T05:29:39.192Z,6.1475
2019-04-10T05:30:25.529Z,6.1902
2019-04-10T05:31:11.924Z,6.2169
2019-04-10T05:31:58.750Z,6.1902
2019-04-10T05:32:45.082Z,6.2036
2019-04-10T05:33:31.459Z,6.2463
2019-04-10T05:34:17.826Z,6.2303
2019-04-10T05:35:06.883Z,6.2303
2019-04-10T05:35:55.048Z,6.2303
2019-04-10T05:36:42.011Z,6.2463
2019-04-10T05:37:28.372Z,6.2169
2019-04-10T05:38:16.744Z,6.2036
2019-04-10T05:39:05.077Z,6.2303
2019-04-10T05:39:52.609Z,6.2303
2019-04-10T05:40:40.136Z,6.2596
2019-04-10T05:41:26.488Z,6.2730
2019-04-10T05:42:12.823Z,6.2863
2019-04-10T05:42:59.571Z,6.3157
2019-04-10T05:43:46.794Z,6.3157
2019-04-10T05:44:34.038Z,6.3157
2019-04-10T05:45:21.229Z,6.3024
2019-04-10T05:46:07.636Z,6.3024
2019-04-10T05:46:54.868Z,6.3451
2019-04-10T05:47:40.259Z,6.2596
2019-04-10T05:48:26.555Z,6.2730
2019-04-10T05:49:12.883Z,6.2463
2019-04-10T05:49:59.805Z,6.2596
2019-04-10T05:50:56.652Z,6.2730
2019-04-10T05:51:41.569Z,6.2730
2019-04-10T05:52:28.934Z,6.3024
2019-04-10T05:53:16.253Z,6.2596
2019-04-10T05:54:02.585Z,6.3024
2019-04-10T05:54:49.373Z,6.3024
2019-04-10T05:55:36.500Z,6.3024
2019-04-10T05:56:22.905Z,6.3451
2019-04-10T05:57:10.320Z,6.3584
2019-04-10T05:58:09.596Z,6.3291
2019-04-10T05:58:56.649Z,6.4145
2019-04-10T05:59:43.968Z,6.4572
2019-04-10T06:00:30.381Z,6.4706
2019-04-10T06:01:17.698Z,6.5133
2019-04-10T06:02:05.319Z,6.4706
2019-04-10T06:02:52.781Z,6.5133
2019-04-10T06:03:39.142Z,6.5427
2019-04-10T06:04:25.451Z,6.5000
2019-04-10T06:05:14.017Z,6.4706
2019-04-10T06:06:01.473Z,6.4439
2019-04-10T06:06:48.493Z,6.5000
2019-04-10T06:07:35.078Z,6.4706
2019-04-10T06:08:21.615Z,6.4439
2019-04-10T06:09:08.755Z,6.4145
2019-04-10T06:10:00.347Z,6.4706
2019-04-10T06:10:48.499Z,6.4706
2019-04-10T06:11:35.844Z,6.5000
2019-04-10T06:12:22.371Z,6.5000
2019-04-10T06:13:08.932Z,6.5133
2019-04-10T06:13:55.312Z,6.5427
2019-04-10T06:14:42.084Z,6.5694
2019-04-10T06:15:28.752Z,6.5427
2019-04-10T06:16:15.321Z,6.5267
2019-04-10T06:17:04.083Z,6.5427
2019-04-10T06:17:51.008Z,6.5427
2019-04-10T06:18:37.602Z,6.5133
2019-04-10T06:19:25.389Z,6.5267
2019-04-10T06:20:14.214Z,6.5427
2019-04-10T06:21:02.880Z,6.5827
2019-04-10T06:21:50.319Z,6.6014
2019-04-10T06:22:36.961Z,6.5827
2019-04-10T06:23:23.452Z,6.5694
2019-04-10T06:24:09.843Z,6.5827
2019-04-10T06:24:56.526Z,6.6014
2019-04-10T06:25:43.551Z,6.6014
2019-04-10T06:26:30.068Z,6.6014
2019-04-10T06:27:16.494Z,6.6281
2019-04-10T06:28:03.152Z,6.6575
2019-04-10T06:28:50.489Z,6.7002
2019-04-10T06:29:37.194Z,6.7002
2019-04-10T06:30:23.915Z,6.7403
2019-04-10T06:31:10.384Z,6.6575
2019-04-10T06:31:56.918Z,6.6415
2019-04-10T06:32:43.300Z,6.6842
2019-04-10T06:33:29.674Z,6.7136
2019-04-10T06:34:18.319Z,6.7269
2019-04-10T06:35:05.767Z,6.7697
2019-04-10T06:35:53.058Z,6.7403
2019-04-10T06:36:39.681Z,6.8124
2019-04-10T06:37:26.219Z,6.8124
2019-04-10T06:38:12.799Z,6.8257
2019-04-10T06:39:00.293Z,6.8818
2019-04-10T06:39:46.863Z,6.8551
2019-04-10T06:40:33.469Z,6.8818
2019-04-10T06:41:19.902Z,6.8818
2019-04-10T06:42:06.636Z,6.9379
2019-04-10T06:42:54.670Z,6.9245
2019-04-10T06:43:43.429Z,6.9379
2019-04-10T06:44:30.026Z,6.9806
2019-04-10T06:45:17.525Z,7.0100
2019-04-10T06:46:04.359Z,6.9966
2019-04-10T06:46:50.785Z,6.8685
2019-04-10T06:47:38.186Z,6.9539
2019-04-10T06:48:25.799Z,6.9245
2019-04-10T06:49:12.326Z,6.9379
2019-04-10T06:49:58.821Z,6.9379
2019-04-10T06:50:45.991Z,6.9673
2019-04-10T06:51:33.415Z,6.9379
2019-04-10T06:52:20.683Z,6.9806
2019-04-10T06:53:07.045Z,6.9673
2019-04-10T06:54:01.826Z,6.9806
2019-04-10T06:54:44.794Z,7.0100
2019-04-10T06:55:32.247Z,7.0233
2019-04-10T06:56:18.709Z,6.9806
2019-04-10T06:57:06.248Z,7.0100
2019-04-10T06:57:57.025Z,7.0367
2019-04-10T06:58:44.380Z,7.0794
2019-04-10T06:59:30.753Z,7.0794
2019-04-10T07:00:19.279Z,7.0527
2019-04-10T07:01:06.349Z,7.0367
2019-04-10T07:01:56.112Z,7.0527
2019-04-10T07:02:44.366Z,7.1088
2019-04-10T07:03:46.984Z,7.1221
2019-04-10T07:04:25.566Z,7.1088
2019-04-10T07:05:13.884Z,7.1649
2019-04-10T07:06:09.744Z,7.1916
2019-04-10T07:07:00.719Z,7.1916
2019-04-10T07:07:52.100Z,7.0928
2019-04-10T07:08:38.106Z,7.0661
2019-04-10T07:09:26.445Z,7.1355
2019-04-10T07:10:24.838Z,7.1088
2019-04-10T07:11:09.093Z,7.1916
2019-04-10T07:11:53.567Z,7.1782
2019-04-10T07:12:39.892Z,7.2637
2019-04-10T07:13:26.246Z,7.1916
2019-04-10T07:14:14.285Z,7.1515
2019-04-10T07:15:01.076Z,7.1515
2019-04-10T07:15:49.675Z,7.2770
2019-04-10T07:16:37.324Z,7.2637
2019-04-10T07:17:23.748Z,7.2210
2019-04-10T07:18:14.254Z,7.1916
2019-04-10T07:19:04.275Z,7.1916
2019-04-10T07:19:46.005Z,7.1649
2019-04-10T07:20:32.354Z,7.2210
2019-04-10T07:21:18.635Z,7.1782
2019-04-10T07:22:08.662Z,7.1221
2019-04-10T07:22:57.008Z,7.1782
2019-04-10T07:23:44.984Z,7.2210
2019-04-10T07:24:34.507Z,7.1355
2019-04-10T07:25:23.722Z,7.1221
2019-04-10T07:26:10.219Z,7.1355
2019-04-10T07:26:58.046Z,7.1782
2019-04-10T07:27:47.890Z,7.3064
2019-04-10T07:28:33.571Z,7.2904
2019-04-10T07:29:27.598Z,7.2770
2019-04-10T07:30:14.013Z,7.3625
2019-04-10T07:31:04.623Z,7.3491
2019-04-10T07:31:52.822Z,7.3758
2019-04-10T07:32:43.344Z,7.4212
2019-04-10T07:33:30.988Z,7.4639
2019-04-10T07:34:20.991Z,7.5067
2019-04-10T07:35:08.954Z,7.5628
2019-04-10T07:35:56.613Z,7.6455
2019-04-10T07:36:43.888Z,7.6749
2019-04-10T07:37:31.994Z,7.6188
2019-04-10T07:38:21.042Z,7.5628
2019-04-10T07:39:08.329Z,7.5628
2019-04-10T07:39:55.151Z,7.5200
2019-04-10T07:40:41.527Z,7.5761
2019-04-10T07:41:29.268Z,7.6322
2019-04-10T07:42:26.671Z,7.7310
2019-04-10T07:43:07.356Z,7.7443
2019-04-10T07:43:56.543Z,7.7176
2019-04-10T07:44:43.850Z,7.7310
2019-04-10T07:45:30.414Z,7.7443
2019-04-10T07:46:15.800Z,7.7310
2019-04-10T07:47:01.142Z,7.7043
2019-04-10T07:47:48.319Z,7.7310
2019-04-10T07:48:35.602Z,7.6616
2019-04-10T07:49:22.291Z,7.7443
2019-04-10T07:50:12.469Z,7.8031
2019-04-10T07:50:58.777Z,7.8725
2019-04-10T07:51:47.276Z,7.8859
2019-04-10T07:52:34.906Z,7.8725
2019-04-10T07:53:22.569Z,7.8592
2019-04-10T07:54:09.009Z,7.9286
2019-04-10T07:54:56.519Z,7.9980
2019-04-10T07:55:55.160Z,8.1128
2019-04-10T07:56:35.293Z,7.9286
2019-04-10T07:57:22.462Z,7.9847
2019-04-10T07:58:08.968Z,7.9847
2019-04-10T07:58:55.989Z,7.8992
2019-04-10T07:59:43.129Z,7.9419
2019-04-10T08:00:29.517Z,7.9980
2019-04-10T08:01:16.164Z,8.0701
2019-04-10T08:02:02.873Z,8.1128
2019-04-10T08:02:51.857Z,8.1395
2019-04-10T08:03:38.201Z,8.1395
2019-04-10T08:04:24.697Z,8.1128
2019-04-10T08:05:12.223Z,7.9847
2019-04-10T08:05:58.709Z,8.0568
2019-04-10T08:06:45.037Z,7.8725
2019-04-10T08:07:34.403Z,7.8725
2019-04-10T08:08:21.723Z,7.7871
2019-04-10T08:09:08.354Z,7.8298
2019-04-10T08:09:54.780Z,7.8031
2019-04-10T08:10:42.439Z,7.8164
2019-04-10T08:11:29.618Z,7.8592
2019-04-10T08:12:16.021Z,7.8298
2019-04-10T08:13:04.603Z,7.7871
2019-04-10T08:13:53.293Z,7.9152
2019-04-10T08:14:42.811Z,7.9286
2019-04-10T08:15:28.193Z,7.9847
2019-04-10T08:16:14.873Z,7.8859
2019-04-10T08:17:01.261Z,7.8164
2019-04-10T08:17:50.519Z,7.8992
2019-04-10T08:18:37.244Z,7.9152
2019-04-10T08:19:25.289Z,7.8592
2019-04-10T08:20:13.310Z,7.8725
2019-04-10T08:20:59.673Z,7.8592
2019-04-10T08:21:46.462Z,7.8992
2019-04-10T08:22:32.855Z,7.9713
2019-04-10T08:23:19.718Z,7.9847
2019-04-10T08:24:07.268Z,7.9713
2019-04-10T08:24:53.744Z,7.9713
2019-04-10T08:25:40.922Z,7.8164
2019-04-10T08:26:28.180Z,7.8031
2019-04-10T08:27:14.557Z,7.8725
2019-04-10T08:28:00.890Z,7.8164
2019-04-10T08:28:46.181Z,7.8298
2019-04-10T08:29:32.667Z,7.7737
2019-04-10T08:30:19.572Z,7.7604
2019-04-10T08:31:06.583Z,7.7176
2019-04-10T08:31:52.923Z,7.7737
2019-04-10T08:32:51.556Z,7.7604
2019-04-10T08:33:30.569Z,7.7737
2019-04-10T08:34:17.266Z,7.7176
2019-04-10T08:35:04.625Z,7.7176
2019-04-10T08:35:51.016Z,7.7443
2019-04-10T08:36:37.507Z,7.8431
2019-04-10T08:37:26.296Z,7.8031
2019-04-10T08:38:13.094Z,7.6455
2019-04-10T08:38:59.508Z,7.6055
2019-04-10T08:39:48.166Z,7.6616
2019-04-10T08:40:36.280Z,7.7043
2019-04-10T08:41:23.339Z,7.7310
2019-04-10T08:42:10.658Z,7.6883
2019-04-10T08:42:57.793Z,7.6883
2019-04-10T08:43:44.165Z,7.7176
2019-04-10T08:44:30.583Z,7.7443
2019-04-10T08:45:17.167Z,7.7737
2019-04-10T08:46:03.603Z,7.7604
2019-04-10T08:46:50.439Z,7.7737
2019-04-10T08:47:37.519Z,7.6883
2019-04-10T08:48:24.145Z,7.7604
2019-04-10T08:49:12.345Z,7.7176
2019-04-10T08:49:58.628Z,7.8164
2019-04-10T08:50:38.437Z,7.8725
2019-04-10T08:51:25.628Z,7.8725
2019-04-10T08:52:12.273Z,7.9419
2019-04-10T08:53:00.011Z,7.8431
2019-04-10T08:53:46.674Z,7.8431
2019-04-10T08:54:34.246Z,7.8592
2019-04-10T08:55:21.814Z,7.9980
2019-04-10T08:56:08.197Z,8.0407
2019-04-10T08:56:54.757Z,8.0140
2019-04-10T08:57:41.712Z,8.0407
2019-04-10T08:58:28.150Z,7.9980
2019-04-10T08:59:14.434Z,7.9580
2019-04-10T09:00:00.832Z,7.7871
2019-04-10T09:00:47.144Z,7.8164
2019-04-10T09:01:33.779Z,7.7871
2019-04-10T09:02:20.160Z,7.7443
2019-04-10T09:03:06.707Z,7.7043
2019-04-10T09:03:53.145Z,7.7043
2019-04-10T09:04:39.550Z,7.8031
2019-04-10T09:05:25.854Z,7.7310
2019-04-10T09:06:13.279Z,7.7310
2019-04-10T09:07:01.447Z,7.7737
2019-04-10T09:07:50.647Z,7.7176
2019-04-10T09:08:37.222Z,7.8431
2019-04-10T09:09:23.741Z,7.9713
2019-04-10T09:10:10.332Z,7.9713
2019-04-10T09:10:56.719Z,7.9580
2019-04-10T09:11:43.021Z,7.8859
2019-04-10T09:12:29.654Z,7.9286
2019-04-10T09:13:20.455Z,8.0140
2019-04-10T09:14:06.872Z,7.9980
2019-04-10T09:14:53.867Z,8.2570
2019-04-10T09:15:40.304Z,8.0968
2019-04-10T09:16:26.792Z,8.2837
2019-04-10T09:17:13.296Z,8.2570
2019-04-10T09:17:59.846Z,8.4119
2019-04-10T09:18:47.364Z,8.4253
2019-04-10T09:19:34.066Z,8.3959
2019-04-10T09:20:20.540Z,8.2971
2019-04-10T09:21:07.148Z,8.4119
2019-04-10T09:21:53.541Z,8.4119
2019-04-10T09:22:57.988Z,8.4520
2019-04-10T09:23:40.945Z,8.2570
2019-04-10T09:24:23.660Z,8.4253
2019-04-10T09:25:11.156Z,8.2971
2019-04-10T09:25:57.931Z,8.1983
2019-04-10T09:26:44.514Z,8.0701
2019-04-10T09:27:33.719Z,8.2277
2019-04-10T09:28:20.235Z,8.3532
2019-04-10T09:29:06.780Z,8.5374
2019-04-10T09:29:54.171Z,8.6790
2019-04-10T09:30:40.779Z,8.5935
2019-04-10T09:31:27.201Z,8.3398
2019-04-10T09:32:14.555Z,8.3692
2019-04-10T09:33:05.558Z,8.3692
2019-04-10T09:33:52.269Z,8.3398
2019-04-10T09:34:38.569Z,8.3692
2019-04-10T09:35:24.969Z,8.4386
2019-04-10T09:36:11.300Z,8.3825
2019-04-10T09:36:57.793Z,8.5107
2019-04-10T09:37:44.160Z,8.6496
2019-04-10T09:38:30.714Z,8.4253
2019-04-10T09:39:17.196Z,8.4947
2019-04-10T09:40:03.677Z,8.5935
2019-04-10T09:40:50.030Z,8.6923
2019-04-10T09:41:36.400Z,8.8338
2019-04-10T09:42:23.631Z,8.8205
2019-04-10T09:43:11.265Z,8.6229
2019-04-10T09:43:58.244Z,8.5241
2019-04-10T09:44:44.739Z,8.4520
2019-04-10T09:45:31.059Z,8.6362
2019-04-10T09:46:18.200Z,8.7778
2019-04-10T09:47:05.542Z,8.7057
2019-04-10T09:47:52.347Z,8.8472
2019-04-10T09:48:38.659Z,8.7911